Teyateyaneng, Lesotho
Current Conditions -  °F | °C
As of 5:00 AM on Sunday 26 Oct 2014 (Local Time) from FABL Reporting Station
Clear Clear  
Wind Chill: 61°   Ceiling: Unl
Heat Index: 61°   Visibility: 6mi
Dew Point: 48°   Wind: 13mph
Humidity: 63%   Direction: 40°NE
Pressure: 30.21"   Gusts: NA
Location:  29.15°S, 27.74°E
Report Text: FABL 260300Z 04011KT CAVOK 16/09 Q1023 NOSIG
Loading
Personal Weather Stations






























Interactive Weather Map
Tropical Storm Tracking
New forecast layout! Learn more

10-Day Weather Forecast

Advertisements
Track Severe Weather on mobile